Dry Creek, Kentucky
Current Conditions -  °F | °C
As of 3:15 PM on Friday 28 Nov 2014 (Local Time) from KPBX Reporting Station
Clear Clear  
Wind Chill: 33°   Ceiling: Unl
Heat Index: 33°   Visibility: 10mi
Dew Point: 18°   Wind: 3mph
Humidity: 54%   Direction: 150°SSE
Pressure: 30.25"   Gusts: NA
Location:  37.351°N, 82.7744°W
Report Text: KPBX 282015Z AUTO 15003KT 10SM CLR 01/M08 A3025 RMK AO2 T00071077
Loading
Personal Weather Stations






























Interactive Weather Map New forecast layout! Learn more

10-Day Weather Forecast

Advertisements
Track Severe Weather on mobile